Lapis Arrow — C6VH5 — position and weather

sailwx.info

Track history (hours):
 
Tides and Currents Weather Stations Pressure Air Temp Water Temp Dewpoint Dewpoint Depression Visibility Wind Speed Wind Dir Waves Ship Positions

Lapis Arrow

Last reported at 2017-Apr-30 08:58 UTC. Time now 2017-Apr-30 09:07 UTC.
Position N 40°42' E 028°60'.

Length 176 m; draft 7.3 m.

Type: Cargo ship. MMSI: 308800800.

Date/timePositionNaut miles runAvg speedWind from/ knotsBaromVisibWave heightAir tempDewpointWater temp
2017-Apr-30 08:58N 40°42' E 028°60'715.5
2017-Apr-30 08:30N 40°44' E 029°09'815.9
2017-Apr-30 08:00N 40°44' E 029°19'11 0.3
2017-Apr-28 19:13N 40°45' E 029°33'410.1
2017-Apr-28 18:52N 40°44' E 029°29'513.1
2017-Apr-28 18:30N 40°43' E 029°23'5 9.8
2017-Apr-28 18:00N 40°43' E 029°16'714.0
2017-Apr-28 17:30N 40°43' E 029°07'714.2
2017-Apr-28 17:00N 40°43' E 028°58'14213.5
2017-Apr-28 06:32N 39°59' E 026°01'413.1
2017-Apr-28 06:12N 39°56' E 025°57'413.1
2017-Apr-28 05:52N 39°52' E 025°53'12813.9
2017-Apr-27 20:40N 37°58' E 024°39'316.1
2017-Apr-27 20:30N 37°56' E 024°37'815.4
2017-Apr-27 19:59N 37°52' E 024°29'715.6
2017-Apr-27 19:30N 37°48' E 024°21'1915.8
2017-Apr-27 18:19N 37°33' E 024°06'716.2
2017-Apr-27 17:53N 37°27' E 024°02'615.7
2017-Apr-27 17:30N 37°21' E 023°59'1415.7
2017-Apr-27 16:37N 37°09' E 023°51'216.1
2017-Apr-27 16:30N 37°08' E 023°49'815.9
2017-Apr-27 16:00N 37°01' E 023°44'816.0
2017-Apr-27 15:30N 36°55' E 023°38'816.4
2017-Apr-27 15:00N 36°48' E 023°32'2616.4
2017-Apr-27 13:25N 36°26' E 023°14'21115.7
2017-Apr-26 23:56N 36°25' E 018°52'716.5
2017-Apr-26 23:29N 36°25' E 018°43'816.6
2017-Apr-26 23:00N 36°25' E 018°32'816.5
2017-Apr-26 22:30N 36°25' E 018°22'1016.3
2017-Apr-26 21:52N 36°25' E 018°09'7116.4
2017-Apr-26 17:33N 36°28' E 016°42'116.4
2017-Apr-26 17:28N 36°28' E 016°40'816.4
2017-Apr-26 17:00N 36°28' E 016°30'816.4
2017-Apr-26 16:31N 36°28' E 016°20'1016.1
2017-Apr-26 15:52N 36°29' E 016°07'615.9
2017-Apr-26 15:30N 36°29' E 016°00'815.7
2017-Apr-26 15:00N 36°29' E 015°51'815.8
2017-Apr-26 14:30N 36°29' E 015°41'1716.0
2017-Apr-26 13:26N 36°29' E 015°19'1716.2
2017-Apr-26 12:22N 36°30' E 014°58'615.9
2017-Apr-26 12:00N 36°32' E 014°51'816.0
2017-Apr-26 11:30N 36°35' E 014°42'816.0
2017-Apr-26 11:00N 36°38' E 014°33'815.9
2017-Apr-26 10:30N 36°41' E 014°23'815.7
2017-Apr-26 10:00N 36°44' E 014°15'815.7
2017-Apr-26 09:30N 36°47' E 014°06'815.9
2017-Apr-26 09:00N 36°50' E 013°56'816.3
2017-Apr-26 08:30N 36°53' E 013°47'816.1
2017-Apr-26 07:59N 36°57' E 013°38'18115.6
2017-Apr-25 20:24N 38°16' E 010°12'815.6
2017-Apr-25 19:55N 38°18' E 010°03'715.6
2017-Apr-25 19:29N 38°20' E 009°55'2215.8
2017-Apr-25 18:05N 38°27' E 009°28'215.9
2017-Apr-25 17:58N 38°27' E 009°25'24415.2
2017-Apr-25 01:57N 41°39' E 006°09'3216.3
2017-Apr-24 23:58N 42°08' E 005°48'3316.4
2017-Apr-24 21:58N 42°37' E 005°27'716.0
2017-Apr-24 21:31N 42°43' E 005°22'2416.5
2017-Apr-24 20:04N 43°04' E 005°06'216.5
2017-Apr-24 19:59N 43°05' E 005°05'816.4
2017-Apr-24 19:30N 43°12' E 005°01'816.4
2017-Apr-24 19:00N 43°20' E 004°58'510.0
2017-Apr-24 18:30N 43°24' E 004°54'2 0.2
2017-Apr-24 09:35N 43°24' E 004°51'0 0.0
2017-Apr-24 07:59N 43°24' E 004°51'0 0.0
2017-Apr-24 07:27N 43°24' E 004°51'0 0.0
2017-Apr-24 06:59N 43°24' E 004°51'0 0.0
2017-Apr-24 06:30N 43°24' E 004°51'0 0.0
2017-Apr-24 05:59N 43°24' E 004°51'0 0.0
2017-Apr-24 05:12N 43°24' E 004°51'0 0.0
2017-Apr-24 04:58N 43°24' E 004°51'0 0.0
2017-Apr-24 04:28N 43°24' E 004°51'0 0.0
2017-Apr-24 04:00N 43°24' E 004°51'0 0.2
2017-Apr-24 03:30N 43°24' E 004°51'3 6.2
2017-Apr-24 03:00N 43°24' E 004°55'5 9.2
2017-Apr-24 02:30N 43°20' E 004°59'5 9.3
2017-Apr-24 02:00N 43°16' E 005°01'510.3
2017-Apr-24 01:30N 43°11' E 005°04'510.4
2017-Apr-24 01:00N 43°07' E 005°09'9212.3
2017-Apr-23 17:33N 42°56' E 007°13'1613.6
2017-Apr-23 16:24N 43°03' E 007°32'613.8
2017-Apr-23 16:00N 43°06' E 007°38'1013.7
2017-Apr-23 15:16N 43°12' E 007°49'413.6
2017-Apr-23 15:00N 43°15' E 007°53'713.4
2017-Apr-23 14:30N 43°19' E 008°01'3113.6
2017-Apr-23 12:14N 43°44' E 008°24'313.3
2017-Apr-23 12:00N 43°47' E 008°27'713.5
2017-Apr-23 11:30N 43°52' E 008°32'713.4
2017-Apr-23 10:59N 43°59' E 008°33'713.5
2017-Apr-23 10:30N 44°06' E 008°33'713.7
2017-Apr-23 10:00N 44°13' E 008°32'612.5
2017-Apr-23 09:30N 44°19' E 008°31'1 1.3
2017-Apr-23 08:56N 44°19' E 008°30'0 0.0
2017-Apr-23 08:25N 44°19' E 008°30'0 0.0
2017-Apr-23 07:59N 44°19' E 008°30'0 0.0
2017-Apr-23 07:29N 44°19' E 008°30'0 0.0
2017-Apr-23 07:01N 44°19' E 008°30'0 0.0
2017-Apr-23 06:22N 44°19' E 008°30'0 0.0
2017-Apr-23 06:01N 44°19' E 008°30'0 0.0
2017-Apr-23 05:29N 44°19' E 008°30'0 0.0
2017-Apr-23 04:59N 44°19' E 008°30'0 0.0
2017-Apr-23 04:30N 44°19' E 008°30'1 2.2
2017-Apr-23 04:00N 44°18' E 008°31'5 9.8
2017-Apr-23 03:30N 44°14' E 008°35'816.7
2017-Apr-23 03:00N 44°07' E 008°41'816.5
2017-Apr-23 02:30N 44°00' E 008°47'816.6
2017-Apr-23 02:00N 43°53' E 008°54'817.0
2017-Apr-23 01:30N 43°46' E 008°60'917.5
2017-Apr-23 01:00N 43°39' E 009°07'917.4
2017-Apr-23 00:30N 43°31' E 009°13'917.1
2017-Apr-23 00:00N 43°24' E 009°19'816.9
2017-Apr-22 23:30N 43°17' E 009°25'917.1
2017-Apr-22 23:00N 43°10' E 009°32'356 7.8
2017-Apr-21 01:27N 39°07' E 015°17'817.5
2017-Apr-21 01:00N 38°60' E 015°21'917.4
2017-Apr-21 00:30N 38°52' E 015°25'917.5
2017-Apr-21 00:00N 38°44' E 015°29'917.5
2017-Apr-20 23:30N 38°36' E 015°34'917.3
2017-Apr-20 23:00N 38°28' E 015°38'917.1
2017-Apr-20 22:31N 38°20' E 015°42'612.9
2017-Apr-20 22:01N 38°15' E 015°38'612.4
2017-Apr-20 21:31N 38°09' E 015°37'815.4
2017-Apr-20 21:00N 38°01' E 015°35'816.3
2017-Apr-20 20:31N 37°53' E 015°39'917.2
2017-Apr-20 20:01N 37°47' E 015°46'917.5
2017-Apr-20 19:29N 37°45' E 015°57'1117.4
2017-Apr-20 18:52N 37°42' E 016°10'  
Track history (hours):
 
Tides and Currents Weather Stations Pressure Air Temp Water Temp Dewpoint Dewpoint Depression Visibility Wind Speed Wind Dir Waves Ship Positions

Lapis Arrow

Last reported at 2017-Apr-30 08:58 UTC. Time now 2017-Apr-30 09:07 UTC.
Position N 40°42' E 028°60'.

Length 176 m; draft 7.3 m.

Type: Cargo ship. MMSI: 308800800.

Date/timePositionNaut miles runAvg speedWind from/ knotsBaromVisibWave heightAir tempDewpointWater temp
2017-Apr-30 08:58N 40°42' E 028°60'715.5
2017-Apr-30 08:30N 40°44' E 029°09'815.9
2017-Apr-30 08:00N 40°44' E 029°19'11 0.3
2017-Apr-28 19:13N 40°45' E 029°33'410.1
2017-Apr-28 18:52N 40°44' E 029°29'513.1
2017-Apr-28 18:30N 40°43' E 029°23'5 9.8
2017-Apr-28 18:00N 40°43' E 029°16'714.0
2017-Apr-28 17:30N 40°43' E 029°07'714.2
2017-Apr-28 17:00N 40°43' E 028°58'14213.5
2017-Apr-28 06:32N 39°59' E 026°01'413.1
2017-Apr-28 06:12N 39°56' E 025°57'413.1
2017-Apr-28 05:52N 39°52' E 025°53'12813.9
2017-Apr-27 20:40N 37°58' E 024°39'316.1
2017-Apr-27 20:30N 37°56' E 024°37'815.4
2017-Apr-27 19:59N 37°52' E 024°29'715.6
2017-Apr-27 19:30N 37°48' E 024°21'1915.8
2017-Apr-27 18:19N 37°33' E 024°06'716.2
2017-Apr-27 17:53N 37°27' E 024°02'615.7
2017-Apr-27 17:30N 37°21' E 023°59'1415.7
2017-Apr-27 16:37N 37°09' E 023°51'216.1
2017-Apr-27 16:30N 37°08' E 023°49'815.9
2017-Apr-27 16:00N 37°01' E 023°44'816.0
2017-Apr-27 15:30N 36°55' E 023°38'816.4
2017-Apr-27 15:00N 36°48' E 023°32'2616.4
2017-Apr-27 13:25N 36°26' E 023°14'21115.7
2017-Apr-26 23:56N 36°25' E 018°52'716.5
2017-Apr-26 23:29N 36°25' E 018°43'816.6
2017-Apr-26 23:00N 36°25' E 018°32'816.5
2017-Apr-26 22:30N 36°25' E 018°22'1016.3
2017-Apr-26 21:52N 36°25' E 018°09'7116.4
2017-Apr-26 17:33N 36°28' E 016°42'116.4
2017-Apr-26 17:28N 36°28' E 016°40'816.4
2017-Apr-26 17:00N 36°28' E 016°30'816.4
2017-Apr-26 16:31N 36°28' E 016°20'1016.1
2017-Apr-26 15:52N 36°29' E 016°07'615.9
2017-Apr-26 15:30N 36°29' E 016°00'815.7
2017-Apr-26 15:00N 36°29' E 015°51'815.8
2017-Apr-26 14:30N 36°29' E 015°41'1716.0
2017-Apr-26 13:26N 36°29' E 015°19'1716.2
2017-Apr-26 12:22N 36°30' E 014°58'615.9
2017-Apr-26 12:00N 36°32' E 014°51'816.0
2017-Apr-26 11:30N 36°35' E 014°42'816.0
2017-Apr-26 11:00N 36°38' E 014°33'815.9
2017-Apr-26 10:30N 36°41' E 014°23'815.7
2017-Apr-26 10:00N 36°44' E 014°15'815.7
2017-Apr-26 09:30N 36°47' E 014°06'815.9
2017-Apr-26 09:00N 36°50' E 013°56'816.3
2017-Apr-26 08:30N 36°53' E 013°47'816.1
2017-Apr-26 07:59N 36°57' E 013°38'18115.6
2017-Apr-25 20:24N 38°16' E 010°12'815.6
2017-Apr-25 19:55N 38°18' E 010°03'715.6
2017-Apr-25 19:29N 38°20' E 009°55'2215.8
2017-Apr-25 18:05N 38°27' E 009°28'215.9
2017-Apr-25 17:58N 38°27' E 009°25'24415.2
2017-Apr-25 01:57N 41°39' E 006°09'3216.3
2017-Apr-24 23:58N 42°08' E 005°48'3316.4
2017-Apr-24 21:58N 42°37' E 005°27'716.0
2017-Apr-24 21:31N 42°43' E 005°22'2416.5
2017-Apr-24 20:04N 43°04' E 005°06'216.5
2017-Apr-24 19:59N 43°05' E 005°05'816.4
2017-Apr-24 19:30N 43°12' E 005°01'816.4
2017-Apr-24 19:00N 43°20' E 004°58'510.0
2017-Apr-24 18:30N 43°24' E 004°54'2 0.2
2017-Apr-24 09:35N 43°24' E 004°51'0 0.0
2017-Apr-24 07:59N 43°24' E 004°51'0 0.0
2017-Apr-24 07:27N 43°24' E 004°51'0 0.0
2017-Apr-24 06:59N 43°24' E 004°51'0 0.0
2017-Apr-24 06:30N 43°24' E 004°51'0 0.0
2017-Apr-24 05:59N 43°24' E 004°51'0 0.0
2017-Apr-24 05:12N 43°24' E 004°51'0 0.0
2017-Apr-24 04:58N 43°24' E 004°51'0 0.0
2017-Apr-24 04:28N 43°24' E 004°51'0 0.0
2017-Apr-24 04:00N 43°24' E 004°51'0 0.2
2017-Apr-24 03:30N 43°24' E 004°51'3 6.2
2017-Apr-24 03:00N 43°24' E 004°55'5 9.2
2017-Apr-24 02:30N 43°20' E 004°59'5 9.3
2017-Apr-24 02:00N 43°16' E 005°01'510.3
2017-Apr-24 01:30N 43°11' E 005°04'510.4
2017-Apr-24 01:00N 43°07' E 005°09'9212.3
2017-Apr-23 17:33N 42°56' E 007°13'1613.6
2017-Apr-23 16:24N 43°03' E 007°32'613.8
2017-Apr-23 16:00N 43°06' E 007°38'1013.7
2017-Apr-23 15:16N 43°12' E 007°49'413.6
2017-Apr-23 15:00N 43°15' E 007°53'713.4
2017-Apr-23 14:30N 43°19' E 008°01'3113.6
2017-Apr-23 12:14N 43°44' E 008°24'313.3
2017-Apr-23 12:00N 43°47' E 008°27'713.5
2017-Apr-23 11:30N 43°52' E 008°32'713.4
2017-Apr-23 10:59N 43°59' E 008°33'713.5
2017-Apr-23 10:30N 44°06' E 008°33'713.7
2017-Apr-23 10:00N 44°13' E 008°32'612.5
2017-Apr-23 09:30N 44°19' E 008°31'1 1.3
2017-Apr-23 08:56N 44°19' E 008°30'0 0.0
2017-Apr-23 08:25N 44°19' E 008°30'0 0.0
2017-Apr-23 07:59N 44°19' E 008°30'0 0.0
2017-Apr-23 07:29N 44°19' E 008°30'0 0.0
2017-Apr-23 07:01N 44°19' E 008°30'0 0.0
2017-Apr-23 06:22N 44°19' E 008°30'0 0.0
2017-Apr-23 06:01N 44°19' E 008°30'0 0.0
2017-Apr-23 05:29N 44°19' E 008°30'0 0.0
2017-Apr-23 04:59N 44°19' E 008°30'0 0.0
2017-Apr-23 04:30N 44°19' E 008°30'1 2.2
2017-Apr-23 04:00N 44°18' E 008°31'5 9.8
2017-Apr-23 03:30N 44°14' E 008°35'816.7
2017-Apr-23 03:00N 44°07' E 008°41'816.5
2017-Apr-23 02:30N 44°00' E 008°47'816.6
2017-Apr-23 02:00N 43°53' E 008°54'817.0
2017-Apr-23 01:30N 43°46' E 008°60'917.5
2017-Apr-23 01:00N 43°39' E 009°07'917.4
2017-Apr-23 00:30N 43°31' E 009°13'917.1
2017-Apr-23 00:00N 43°24' E 009°19'816.9
2017-Apr-22 23:30N 43°17' E 009°25'917.1
2017-Apr-22 23:00N 43°10' E 009°32'356 7.8
2017-Apr-21 01:27N 39°07' E 015°17'817.5
2017-Apr-21 01:00N 38°60' E 015°21'917.4
2017-Apr-21 00:30N 38°52' E 015°25'917.5
2017-Apr-21 00:00N 38°44' E 015°29'917.5
2017-Apr-20 23:30N 38°36' E 015°34'917.3
2017-Apr-20 23:00N 38°28' E 015°38'917.1
2017-Apr-20 22:31N 38°20' E 015°42'612.9
2017-Apr-20 22:01N 38°15' E 015°38'612.4
2017-Apr-20 21:31N 38°09' E 015°37'815.4
2017-Apr-20 21:00N 38°01' E 015°35'816.3
2017-Apr-20 20:31N 37°53' E 015°39'917.2
2017-Apr-20 20:01N 37°47' E 015°46'917.5
2017-Apr-20 19:29N 37°45' E 015°57'1117.4
2017-Apr-20 18:52N 37°42' E 016°10'  

Dump ship's entire track history